createdAt,value
2018-09-13T00:02:19.602Z,11.63
2018-09-13T00:04:47.271Z,9.47
2018-09-13T00:07:14.987Z,8.13
2018-09-13T00:09:42.747Z,6.97
2018-09-13T00:12:10.543Z,7.87
2018-09-13T00:14:38.323Z,7.43
2018-09-13T00:17:06.027Z,9.30
2018-09-13T00:19:33.743Z,6.77
2018-09-13T00:22:01.782Z,7.17
2018-09-13T00:24:33.119Z,8.60
2018-09-13T00:27:00.832Z,9.43
2018-09-13T00:29:28.518Z,7.70
2018-09-13T00:31:56.476Z,7.20
2018-09-13T00:34:24.267Z,9.43
2018-09-13T00:36:52.236Z,9.23
2018-09-13T00:39:19.903Z,8.40
2018-09-13T00:41:47.598Z,8.43
2018-09-13T00:44:15.278Z,8.77
2018-09-13T00:46:42.962Z,7.17
2018-09-13T00:49:10.658Z,8.50
2018-09-13T00:51:38.363Z,8.53
2018-09-13T00:54:06.273Z,8.67
2018-09-13T00:56:33.962Z,8.17
2018-09-13T00:59:01.854Z,8.57
2018-09-13T01:01:29.545Z,9.53
2018-09-13T01:03:57.215Z,11.50
2018-09-13T01:06:24.891Z,7.47
2018-09-13T01:08:52.821Z,10.57
2018-09-13T01:11:20.537Z,8.17
2018-09-13T01:13:48.260Z,9.17
2018-09-13T01:16:15.967Z,11.00
2018-09-13T01:18:43.663Z,9.53
2018-09-13T01:21:11.383Z,11.07
2018-09-13T01:23:39.063Z,9.23
2018-09-13T01:26:07.776Z,9.57
2018-09-13T01:28:35.497Z,8.00
2018-09-13T01:31:03.531Z,9.43
2018-09-13T01:33:31.221Z,8.27
2018-09-13T01:35:58.928Z,7.47
2018-09-13T01:38:26.795Z,9.40
2018-09-13T01:40:54.459Z,9.20
2018-09-13T01:43:29.003Z,10.13
2018-09-13T01:45:56.691Z,8.30
2018-09-13T01:48:24.371Z,6.90
2018-09-13T01:50:52.487Z,8.20
2018-09-13T01:53:20.163Z,9.40
2018-09-13T01:55:47.871Z,8.27
2018-09-13T01:58:19.560Z,7.97
2018-09-13T02:00:47.218Z,7.63
2018-09-13T02:03:14.928Z,8.53
2018-09-13T02:05:42.606Z,9.63
2018-09-13T02:08:10.270Z,7.73
2018-09-13T02:10:37.959Z,7.77
2018-09-13T02:13:06.295Z,9.20
2018-09-13T02:15:33.960Z,8.60
2018-09-13T02:18:01.675Z,9.47
2018-09-13T02:20:29.371Z,6.83
2018-09-13T02:22:57.060Z,8.67
2018-09-13T02:25:24.755Z,5.97
2018-09-13T02:27:52.423Z,8.23
2018-09-13T02:30:20.170Z,11.37
2018-09-13T02:32:54.556Z,9.03
2018-09-13T02:35:22.259Z,8.70
2018-09-13T02:37:50.081Z,10.47
2018-09-13T02:40:17.863Z,9.90
2018-09-13T02:42:45.600Z,10.43
2018-09-13T02:45:13.312Z,9.70
2018-09-13T02:47:41.022Z,9.33
2018-09-13T02:50:08.879Z,11.67
2018-09-13T02:52:36.567Z,8.70
2018-09-13T02:55:04.301Z,8.47
2018-09-13T02:57:32.038Z,11.00
2018-09-13T03:00:00.000Z,9.43
2018-09-13T03:05:27.811Z,8.63
2018-09-13T03:07:55.516Z,9.20
2018-09-13T03:10:23.228Z,9.47
2018-09-13T03:12:50.892Z,10.83
2018-09-13T03:15:18.588Z,10.30
2018-09-13T03:17:46.309Z,9.37
2018-09-13T03:20:14.069Z,9.37
2018-09-13T03:22:41.809Z,11.80
2018-09-13T03:25:09.512Z,9.70
2018-09-13T03:27:37.282Z,8.90
2018-09-13T03:30:05.008Z,8.77
2018-09-13T03:32:32.687Z,10.17
2018-09-13T03:35:00.801Z,10.30
2018-09-13T03:37:28.479Z,8.90
2018-09-13T03:39:56.291Z,9.23
2018-09-13T03:42:24.016Z,13.97
2018-09-13T03:44:51.764Z,8.87
2018-09-13T03:47:19.463Z,8.53
2018-09-13T03:49:47.176Z,10.30
2018-09-13T03:52:14.983Z,9.13
2018-09-13T03:54:42.704Z,8.83
2018-09-13T03:57:10.399Z,10.27
2018-09-13T03:59:38.072Z,8.57
2018-09-13T04:02:05.849Z,10.90
2018-09-13T04:04:33.820Z,11.30
2018-09-13T04:07:01.943Z,10.30
2018-09-13T04:09:29.639Z,9.30
2018-09-13T04:11:57.403Z,9.60
2018-09-13T04:14:25.158Z,9.70
2018-09-13T04:16:52.837Z,9.40
2018-09-13T04:19:20.523Z,7.90
2018-09-13T04:21:48.263Z,9.30
2018-09-13T04:24:16.020Z,9.70
2018-09-13T04:26:43.718Z,9.83
2018-09-13T04:29:11.432Z,9.93
2018-09-13T04:31:39.108Z,11.60
2018-09-13T04:34:06.792Z,11.80
2018-09-13T04:36:34.519Z,8.87
2018-09-13T04:39:02.370Z,10.40
2018-09-13T04:41:30.028Z,11.47
2018-09-13T04:43:57.712Z,9.00
2018-09-13T04:46:25.383Z,9.27
2018-09-13T04:48:53.102Z,8.90
2018-09-13T04:51:20.929Z,8.83
2018-09-13T04:53:52.055Z,8.43
2018-09-13T04:56:19.791Z,9.03
2018-09-13T04:58:47.461Z,9.80
2018-09-13T05:01:15.127Z,10.47
2018-09-13T05:03:42.903Z,13.37
2018-09-13T05:06:10.555Z,10.23
2018-09-13T05:08:38.271Z,10.23
2018-09-13T05:11:05.968Z,8.30
2018-09-13T05:13:33.927Z,10.27
2018-09-13T05:16:01.787Z,8.77
2018-09-13T05:18:29.455Z,9.20
2018-09-13T05:20:57.155Z,11.40
2018-09-13T05:23:24.831Z,8.30
2018-09-13T05:25:52.607Z,8.43
2018-09-13T05:28:20.263Z,9.73
2018-09-13T05:30:47.927Z,9.40
2018-09-13T05:33:15.579Z,9.47
2018-09-13T05:35:43.239Z,9.00
2018-09-13T05:38:10.968Z,12.87
2018-09-13T05:40:38.668Z,9.63
2018-09-13T05:43:06.475Z,10.07
2018-09-13T05:45:34.180Z,9.23
2018-09-13T05:48:01.850Z,10.60
2018-09-13T05:50:29.682Z,9.77
2018-09-13T05:52:57.388Z,8.30
2018-09-13T05:55:25.393Z,9.07
2018-09-13T05:57:53.084Z,8.37
2018-09-13T06:00:20.763Z,11.00
2018-09-13T06:02:48.559Z,10.47
2018-09-13T06:05:16.370Z,10.07
2018-09-13T06:07:44.103Z,9.37
2018-09-13T06:10:11.875Z,9.17
2018-09-13T06:12:39.564Z,10.90
2018-09-13T06:15:07.299Z,9.70
2018-09-13T06:17:35.004Z,8.73
2018-09-13T06:20:02.720Z,8.47
2018-09-13T06:22:30.553Z,7.97
2018-09-13T06:24:58.224Z,8.53
2018-09-13T06:27:25.911Z,8.33
2018-09-13T06:29:53.831Z,7.20
2018-09-13T06:32:21.483Z,8.00
2018-09-13T06:34:49.142Z,10.43
2018-09-13T06:37:16.815Z,7.97
2018-09-13T06:39:44.509Z,8.43
2018-09-13T06:42:12.224Z,10.80
2018-09-13T06:44:39.876Z,9.67
2018-09-13T06:47:11.162Z,8.53
2018-09-13T06:49:38.859Z,8.83
2018-09-13T06:52:06.592Z,9.00
2018-09-13T06:54:34.287Z,9.13
2018-09-13T06:57:02.159Z,9.07
2018-09-13T06:59:29.827Z,9.57
2018-09-13T07:01:57.514Z,10.80
2018-09-13T07:04:25.185Z,10.73
2018-09-13T07:06:52.916Z,10.73
2018-09-13T07:09:20.602Z,14.43
2018-09-13T07:11:48.299Z,8.27
2018-09-13T07:14:15.964Z,9.50
2018-09-13T07:16:43.692Z,10.23
2018-09-13T07:19:11.439Z,11.03
2018-09-13T07:21:39.144Z,9.07
2018-09-13T07:24:06.923Z,10.20
2018-09-13T07:26:34.639Z,8.33
2018-09-13T07:29:02.340Z,11.87
2018-09-13T07:31:30.075Z,9.23
2018-09-13T07:33:57.751Z,12.10
2018-09-13T07:36:25.571Z,8.70
2018-09-13T07:38:53.255Z,11.03
2018-09-13T07:41:21.226Z,14.77
2018-09-13T07:43:48.943Z,9.53
2018-09-13T07:46:16.656Z,9.33
2018-09-13T07:48:50.113Z,11.40
2018-09-13T07:51:18.049Z,9.33
2018-09-13T07:53:45.780Z,12.33
2018-09-13T07:56:13.568Z,9.73
2018-09-13T07:58:41.392Z,10.00
2018-09-13T08:01:09.078Z,10.97
2018-09-13T08:03:36.751Z,11.23
2018-09-13T08:06:04.493Z,12.93
2018-09-13T08:08:32.216Z,10.43
2018-09-13T08:10:59.919Z,9.10
2018-09-13T08:13:27.627Z,8.90
2018-09-13T08:15:55.302Z,10.17
2018-09-13T08:18:23.124Z,9.73
2018-09-13T08:20:50.779Z,9.40
2018-09-13T08:23:18.666Z,11.03
2018-09-13T08:25:46.388Z,10.10
2018-09-13T08:28:14.088Z,9.70
2018-09-13T08:30:41.833Z,10.30
2018-09-13T08:33:09.565Z,9.87
2018-09-13T08:35:37.206Z,11.33
2018-09-13T08:38:05.235Z,12.50
2018-09-13T08:40:32.959Z,9.70
2018-09-13T08:43:00.754Z,14.47
2018-09-13T08:45:28.811Z,10.00
2018-09-13T08:47:57.306Z,8.40
2018-09-13T08:50:25.016Z,9.43
2018-09-13T08:52:52.784Z,10.93
2018-09-13T08:55:20.552Z,11.97
2018-09-13T08:57:48.339Z,9.90
2018-09-13T09:00:16.132Z,11.47
2018-09-13T09:02:43.849Z,10.77
2018-09-13T09:05:11.596Z,11.93
2018-09-13T09:07:42.778Z,11.43
2018-09-13T09:10:10.450Z,11.17
2018-09-13T09:12:38.111Z,17.73
2018-09-13T09:15:05.907Z,10.00
2018-09-13T09:17:33.742Z,14.00
2018-09-13T09:20:01.628Z,13.40
2018-09-13T09:22:29.300Z,12.33
2018-09-13T09:24:57.047Z,11.33
2018-09-13T09:27:25.418Z,12.90
2018-09-13T09:29:53.160Z,10.60
2018-09-13T09:32:20.802Z,11.13
2018-09-13T09:34:48.506Z,10.27
2018-09-13T09:37:16.193Z,8.93
2018-09-13T09:39:43.980Z,12.00
2018-09-13T09:42:11.659Z,10.33
2018-09-13T09:44:39.311Z,11.10
2018-09-13T09:47:06.975Z,10.30
2018-09-13T09:49:35.480Z,9.33
2018-09-13T09:52:03.207Z,13.70
2018-09-13T09:54:31.039Z,9.73
2018-09-13T09:56:58.733Z,9.53
2018-09-13T09:59:26.399Z,10.37
2018-09-13T10:01:59.819Z,9.63
2018-09-13T10:04:27.569Z,8.90
2018-09-13T10:06:55.846Z,10.37
2018-09-13T10:09:27.243Z,10.00
2018-09-13T10:11:54.918Z,10.97
2018-09-13T10:14:22.664Z,9.47
2018-09-13T10:16:56.147Z,9.60
2018-09-13T10:19:29.427Z,12.53
2018-09-13T10:22:02.927Z,9.17
2018-09-13T10:24:36.455Z,10.10
2018-09-13T10:27:09.951Z,7.17
2018-09-13T10:29:43.552Z,11.33
2018-09-13T10:32:17.270Z,9.27
2018-09-13T10:34:50.611Z,11.97
2018-09-13T10:37:24.092Z,10.87
2018-09-13T10:40:00.830Z,10.53
2018-09-13T10:42:34.527Z,9.57
2018-09-13T10:45:08.051Z,11.73
2018-09-13T10:47:42.166Z,9.73
2018-09-13T10:50:14.603Z,7.77
2018-09-13T10:52:46.801Z,12.03
2018-09-13T10:55:14.860Z,9.83
2018-09-13T10:57:43.765Z,11.10
2018-09-13T11:00:12.005Z,10.53
2018-09-13T11:02:39.744Z,8.13
2018-09-13T11:05:07.496Z,11.23
2018-09-13T11:07:35.459Z,11.40
2018-09-13T11:10:03.427Z,14.97
2018-09-13T11:12:36.187Z,10.63
2018-09-13T11:15:41.520Z,9.20
2018-09-13T11:18:09.208Z,14.57
2018-09-13T11:20:36.939Z,10.93
2018-09-13T11:23:04.823Z,8.67
2018-09-13T11:25:32.670Z,8.90
2018-09-13T11:28:00.341Z,8.63
2018-09-13T11:30:28.132Z,9.30
2018-09-13T11:32:55.811Z,7.67
2018-09-13T11:35:23.867Z,9.60
2018-09-13T11:37:51.707Z,9.07
2018-09-13T11:40:21.123Z,10.37
2018-09-13T11:42:48.813Z,13.63
2018-09-13T11:45:16.914Z,8.37
2018-09-13T11:47:44.633Z,6.97
2018-09-13T11:50:12.343Z,7.83
2018-09-13T11:52:40.047Z,7.33
2018-09-13T11:55:07.859Z,8.33
2018-09-13T11:57:35.793Z,8.77
2018-09-13T12:00:03.576Z,8.10
2018-09-13T12:02:31.250Z,11.27
2018-09-13T12:04:59.336Z,9.00
2018-09-13T12:07:27.008Z,16.33
2018-09-13T12:09:54.739Z,10.10
2018-09-13T12:12:22.434Z,8.57
2018-09-13T12:14:50.314Z,8.67
2018-09-13T12:17:18.266Z,9.20
2018-09-13T12:19:46.115Z,11.23
2018-09-13T12:22:13.968Z,11.13
2018-09-13T12:24:41.663Z,9.77
2018-09-13T12:27:09.460Z,12.77
2018-09-13T12:29:37.158Z,14.20
2018-09-13T12:32:04.893Z,9.77
2018-09-13T12:34:32.607Z,7.23
2018-09-13T12:37:00.263Z,8.70
2018-09-13T12:39:28.136Z,7.33
2018-09-13T12:41:55.908Z,9.57
2018-09-13T12:44:24.423Z,7.27
2018-09-13T12:46:52.151Z,6.60
2018-09-13T12:49:20.163Z,6.37
2018-09-13T12:51:47.881Z,5.93
2018-09-13T12:54:15.619Z,12.40
2018-09-13T12:56:43.490Z,6.37
2018-09-13T12:59:11.083Z,6.37
2018-09-13T13:01:38.832Z,10.57
2018-09-13T13:04:06.568Z,7.47
2018-09-13T13:06:34.367Z,6.63
2018-09-13T13:09:02.231Z,12.77
2018-09-13T13:11:29.945Z,10.27
2018-09-13T13:13:57.728Z,8.00
2018-09-13T13:16:25.485Z,5.70
2018-09-13T13:18:53.214Z,11.37
2018-09-13T13:21:20.892Z,6.33
2018-09-13T13:23:48.603Z,7.30
2018-09-13T13:26:16.284Z,5.97
2018-09-13T13:28:44.005Z,13.00
2018-09-13T13:31:11.716Z,5.00
2018-09-13T13:33:39.517Z,12.60
2018-09-13T13:36:07.213Z,5.87
2018-09-13T13:38:34.879Z,6.33
2018-09-13T13:41:02.808Z,5.40
2018-09-13T13:43:30.508Z,7.37
2018-09-13T13:45:58.231Z,6.07
2018-09-13T13:48:25.944Z,10.33
2018-09-13T13:50:53.647Z,9.60
2018-09-13T13:53:21.397Z,7.23
2018-09-13T13:55:49.090Z,9.00
2018-09-13T13:58:17.064Z,9.67
2018-09-13T14:00:44.826Z,7.10
2018-09-13T14:03:12.506Z,7.47
2018-09-13T14:05:40.187Z,8.27
2018-09-13T14:08:07.864Z,11.47
2018-09-13T14:10:35.567Z,9.70
2018-09-13T14:13:03.328Z,7.90
2018-09-13T14:15:31.048Z,12.47
2018-09-13T14:17:58.792Z,7.07
2018-09-13T14:20:26.531Z,7.90
2018-09-13T14:22:54.183Z,6.97
2018-09-13T14:25:21.963Z,7.80
2018-09-13T14:27:49.691Z,8.47
2018-09-13T14:30:17.412Z,10.53
2018-09-13T14:32:45.175Z,14.00
2018-09-13T14:35:12.859Z,10.50
2018-09-13T14:37:40.632Z,11.60
2018-09-13T14:40:08.314Z,14.03
2018-09-13T14:42:35.992Z,12.20
2018-09-13T14:45:07.235Z,13.20
2018-09-13T14:47:35.062Z,14.73
2018-09-13T14:50:03.059Z,13.47
2018-09-13T14:52:30.908Z,21.13
2018-09-13T14:54:58.696Z,19.30
2018-09-13T14:57:27.064Z,20.30
2018-09-13T14:59:54.951Z,16.97
2018-09-13T15:02:22.607Z,16.33
2018-09-13T15:04:50.358Z,17.53
2018-09-13T15:07:18.224Z,16.03
2018-09-13T15:09:45.915Z,14.50
2018-09-13T15:12:13.661Z,14.43
2018-09-13T15:14:41.342Z,13.87
2018-09-13T15:17:09.311Z,14.77
2018-09-13T15:19:37.056Z,16.10
2018-09-13T15:22:04.907Z,15.60
2018-09-13T15:24:32.681Z,14.47
2018-09-13T15:27:00.278Z,14.10
2018-09-13T15:29:28.111Z,11.50
2018-09-13T15:31:56.171Z,14.07
2018-09-13T15:34:24.287Z,11.23
2018-09-13T15:36:52.257Z,10.50
2018-09-13T15:39:19.952Z,12.07
2018-09-13T15:41:47.631Z,11.57
2018-09-13T15:44:15.363Z,10.63
2018-09-13T15:46:43.135Z,11.03
2018-09-13T15:49:10.819Z,11.67
2018-09-13T15:51:38.818Z,10.20
2018-09-13T15:54:06.635Z,8.47
2018-09-13T15:56:34.354Z,9.43
2018-09-13T15:59:02.489Z,8.57
2018-09-13T16:01:30.152Z,9.60
2018-09-13T16:03:57.911Z,10.03
2018-09-13T16:06:25.611Z,8.00
2018-09-13T16:08:53.642Z,7.17
2018-09-13T16:11:21.319Z,8.63
2018-09-13T16:13:48.996Z,7.73
2018-09-13T16:16:16.843Z,7.93
2018-09-13T16:18:44.627Z,6.07
2018-09-13T16:21:12.321Z,6.80
2018-09-13T16:23:40.331Z,5.87
2018-09-13T16:26:08.217Z,5.93
2018-09-13T16:28:35.874Z,6.23
2018-09-13T16:31:03.638Z,6.50
2018-09-13T16:33:34.611Z,6.80
2018-09-13T16:36:02.376Z,6.20
2018-09-13T16:38:35.951Z,6.60
2018-09-13T16:41:09.684Z,5.73
2018-09-13T16:43:43.119Z,4.60
2018-09-13T16:46:17.376Z,4.73
2018-09-13T16:48:45.087Z,5.10
2018-09-13T16:51:12.939Z,4.53
2018-09-13T16:53:43.759Z,4.33
2018-09-13T16:56:11.483Z,4.53
2018-09-13T16:58:39.177Z,4.10
2018-09-13T17:01:06.887Z,4.43
2018-09-13T17:03:34.575Z,4.97
2018-09-13T17:06:02.307Z,5.97
2018-09-13T17:08:30.935Z,5.77
2018-09-13T17:10:58.615Z,4.40
2018-09-13T17:13:26.437Z,6.20
2018-09-13T17:15:54.240Z,7.47
2018-09-13T17:18:21.916Z,6.07
2018-09-13T17:20:50.859Z,6.90
2018-09-13T17:23:18.663Z,6.97
2018-09-13T17:25:46.591Z,7.33
2018-09-13T17:28:14.272Z,5.50
2018-09-13T17:30:42.078Z,7.13
2018-09-13T17:33:09.936Z,5.40
2018-09-13T17:35:37.737Z,6.77
2018-09-13T17:38:05.530Z,5.03
2018-09-13T17:40:33.298Z,7.73
2018-09-13T17:43:01.220Z,7.20
2018-09-13T17:45:29.247Z,6.90
2018-09-13T17:47:57.198Z,6.60
2018-09-13T17:50:25.399Z,8.70
2018-09-13T17:52:53.135Z,5.63
2018-09-13T17:55:21.043Z,6.33
2018-09-13T17:57:48.848Z,6.80
2018-09-13T18:00:24.220Z,6.90
2018-09-13T18:02:52.203Z,6.30
2018-09-13T18:05:19.895Z,6.90
2018-09-13T18:07:47.628Z,8.13
2018-09-13T18:10:15.313Z,5.07
2018-09-13T18:12:43.093Z,6.20
2018-09-13T18:15:11.024Z,6.57
2018-09-13T18:17:38.811Z,6.30
2018-09-13T18:20:06.661Z,6.53
2018-09-13T18:22:34.743Z,5.17
2018-09-13T18:25:03.615Z,7.30
2018-09-13T18:27:31.459Z,7.33
2018-09-13T18:29:59.476Z,5.93
2018-09-13T18:32:27.271Z,7.33
2018-09-13T18:34:55.116Z,6.57
2018-09-13T18:37:22.835Z,8.13
2018-09-13T18:39:50.575Z,7.63
2018-09-13T18:42:18.371Z,7.03
2018-09-13T18:44:46.240Z,8.07
2018-09-13T18:47:14.480Z,6.70
2018-09-13T18:49:42.301Z,9.63
2018-09-13T18:52:10.017Z,7.20
2018-09-13T18:54:37.833Z,5.93
2018-09-13T18:57:05.571Z,6.27
2018-09-13T18:59:33.776Z,6.30
2018-09-13T19:02:01.730Z,7.40
2018-09-13T19:04:29.477Z,6.47
2018-09-13T19:06:57.416Z,7.27
2018-09-13T19:09:25.374Z,6.93
2018-09-13T19:11:53.156Z,5.77
2018-09-13T19:14:20.953Z,5.87
2018-09-13T19:16:49.409Z,5.13
2018-09-13T19:19:17.156Z,7.77
2018-09-13T19:21:45.023Z,8.10
2018-09-13T19:24:12.943Z,6.80
2018-09-13T19:26:43.051Z,4.93
2018-09-13T19:29:11.707Z,5.77
2018-09-13T19:31:39.531Z,7.10
2018-09-13T19:34:07.367Z,8.50
2018-09-13T19:36:35.155Z,7.60
2018-09-13T19:39:03.407Z,7.37
2018-09-13T19:41:33.620Z,7.13
2018-09-13T19:44:03.344Z,6.97
2018-09-13T19:46:31.055Z,6.53
2018-09-13T19:48:59.160Z,6.87
2018-09-13T19:51:33.835Z,9.43
2018-09-13T19:54:01.686Z,9.90
2018-09-13T19:56:29.599Z,8.53
2018-09-13T19:58:57.295Z,8.47
2018-09-13T20:01:25.057Z,10.53
2018-09-13T20:03:53.416Z,9.70
2018-09-13T20:06:21.787Z,9.67
2018-09-13T20:08:50.260Z,6.90
2018-09-13T20:11:18.056Z,6.23
2018-09-13T20:13:45.744Z,6.03
2018-09-13T20:16:13.471Z,5.70
2018-09-13T20:18:41.347Z,5.03
2018-09-13T20:21:08.976Z,5.70
2018-09-13T20:23:36.755Z,6.00
2018-09-13T20:26:04.525Z,7.13
2018-09-13T20:28:32.456Z,6.93
2018-09-13T20:31:00.271Z,6.47
2018-09-13T20:33:28.028Z,5.00
2018-09-13T20:35:55.907Z,5.13
2018-09-13T20:38:23.760Z,6.03
2018-09-13T20:40:51.908Z,4.87
2018-09-13T20:43:19.740Z,7.67
2018-09-13T20:45:47.399Z,6.53
2018-09-13T20:48:15.431Z,6.00
2018-09-13T20:50:43.364Z,6.23
2018-09-13T20:53:11.059Z,6.10
2018-09-13T20:55:38.773Z,5.73
2018-09-13T20:58:06.539Z,5.50
2018-09-13T21:00:34.279Z,4.73
2018-09-13T21:03:02.119Z,4.80
2018-09-13T21:05:29.848Z,7.47
2018-09-13T21:07:57.687Z,6.60
2018-09-13T21:10:25.356Z,5.37
2018-09-13T21:12:53.164Z,5.97
2018-09-13T21:15:20.959Z,5.70
2018-09-13T21:17:48.636Z,4.57
2018-09-13T21:20:16.906Z,5.23
2018-09-13T21:22:44.655Z,4.97
2018-09-13T21:25:12.411Z,5.60
2018-09-13T21:27:40.204Z,5.03
2018-09-13T21:30:07.916Z,5.27
2018-09-13T21:32:35.721Z,6.90
2018-09-13T21:35:03.541Z,5.97
2018-09-13T21:37:31.370Z,4.93
2018-09-13T21:39:59.163Z,4.93
2018-09-13T21:42:33.727Z,4.87
2018-09-13T21:45:01.803Z,4.40
2018-09-13T21:47:29.471Z,4.53
2018-09-13T21:49:57.439Z,4.80
2018-09-13T21:52:25.251Z,5.13
2018-09-13T21:54:53.292Z,4.50
2018-09-13T21:57:21.035Z,3.67
2018-09-13T21:59:48.735Z,4.60
2018-09-13T22:02:16.444Z,3.93
2018-09-13T22:04:44.285Z,6.57
2018-09-13T22:07:12.059Z,5.50
2018-09-13T22:09:39.913Z,5.33
2018-09-13T22:12:07.754Z,5.20
2018-09-13T22:14:35.523Z,4.83
2018-09-13T22:17:03.313Z,5.03
2018-09-13T22:19:31.030Z,5.30
2018-09-13T22:22:05.601Z,4.37
2018-09-13T22:24:33.416Z,5.13
2018-09-13T22:27:01.243Z,4.47
2018-09-13T22:29:29.061Z,5.63
2018-09-13T22:31:57.355Z,4.83
2018-09-13T22:34:25.055Z,4.93
2018-09-13T22:36:52.728Z,5.37
2018-09-13T22:39:20.428Z,4.77
2018-09-13T22:41:48.080Z,4.90
2018-09-13T22:44:15.792Z,5.20
2018-09-13T22:46:43.472Z,5.23
2018-09-13T22:49:11.198Z,6.20
2018-09-13T22:51:39.128Z,5.13
2018-09-13T22:54:06.960Z,5.10
2018-09-13T22:56:34.644Z,10.33
2018-09-13T22:59:03.027Z,5.40
2018-09-13T23:01:30.707Z,6.13
2018-09-13T23:03:58.422Z,5.97
2018-09-13T23:06:26.115Z,4.87
2018-09-13T23:08:53.844Z,5.40
2018-09-13T23:11:21.716Z,6.77
2018-09-13T23:13:56.182Z,6.37
2018-09-13T23:16:23.896Z,5.10
2018-09-13T23:18:51.692Z,4.93
2018-09-13T23:21:19.466Z,4.17
2018-09-13T23:23:47.186Z,5.00
2018-09-13T23:26:14.912Z,5.77
2018-09-13T23:28:42.574Z,4.63
2018-09-13T23:31:10.306Z,6.10
2018-09-13T23:33:38.275Z,5.63
2018-09-13T23:36:06.011Z,4.90
2018-09-13T23:38:33.753Z,5.07
2018-09-13T23:41:01.611Z,4.83
2018-09-13T23:43:29.723Z,4.70
2018-09-13T23:45:57.511Z,4.10
2018-09-13T23:48:25.194Z,3.70
2018-09-13T23:50:52.916Z,4.50
2018-09-13T23:53:20.686Z,4.43
2018-09-13T23:55:48.669Z,4.93
2018-09-13T23:58:16.409Z,5.00
